Steeleville, Illinois
Current Conditions -  °F | °C
As of 4:35 PM on Monday 20 Oct 2014 (Local Time) from KSAR Reporting Station
Clear Clear  
Wind Chill: 73°   Ceiling: Unl
Heat Index: 73°   Visibility: 10mi
Dew Point: 49°   Wind: 8mph
Humidity: 43%   Direction: 300°WNW
Pressure: 29.94"   Gusts: NA
Location:  38.01°N, 89.66°W
Report Text: KSAR 202135Z AUTO 30007KT 10SM CLR 23/10 A2994 RMK AO2 T02300097
Loading
Personal Weather Stations






























Interactive Weather Map
Tropical Storm Tracking
New forecast layout! Learn more

10-Day Weather Forecast

Advertisements
Track Severe Weather on mobile